• Join FlightAware (Why Join?)
  • Login
  • US Flag 
Rudolph Flight #1: Arrived! 
02:14AM EST


 

Airport Tracker/Info


-or-


 

Live Flight TrackerFlight Track Log ✈ CTL18 ✈ 22-May-2013 ✈ KYIP - KBKL

Flight Track Log - Related Links

Times and Time Zones

All times are in EDT time to prevent confusion due to time zone crossing. See the CTL18 flight status page for this flight to view local times or setup timezone preferences in your user account.

Time Position Orientation Groundspeed Altitude Reporting Facility
EDT Latitude Longitude Course Direction KTS MPH feet Rate Location/Type
09:51PM 42.2258 -83.5528 220° Southwest 105 121 1,400  Level Cleveland Center
09:52PM 42.2022 -83.5797 220° Southwest 109 125 2,300 840 Climbing Cleveland Center
09:53PM 42.1786 -83.6094 223° Southwest 119 137 3,100 360 Climbing Cleveland Center
09:54PM 42.1386 -83.6242 195° South 167 192 3,100  Level Cleveland Center
09:55PM 42.0883 -83.6303 185° South 173 199 3,100 -60 Level Cleveland Center
09:56PM 42.0425 -83.6336 183° South 172 198 3,000  Descending Cleveland Center
09:57PM 42.0017 -83.5981 147° Southeast 194 223 3,200  Climbing Cleveland Center
09:58PM 41.9825 -83.5358 112° Southeast 196 226 3,000 -120 Descending Cleveland Center
09:59PM 41.9675 -83.4653 106° East 197 227 3,000  Level Cleveland Center
10:00PM 41.9483 -83.4031 112° Southeast 198 228 3,000 240 Level Cleveland Center
10:01PM 41.9311 -83.3381 110° East 177 204 3,500 300 Climbing Cleveland Center
10:02PM 41.9158 -83.2761 108° East 179 206 3,700 420 Climbing Cleveland Center
10:03PM 41.9008 -83.2083 107° East 172 198 4,400 540 Climbing Cleveland Center
10:04PM 41.8833 -83.1408 109° East 166 191 5,000 240 Climbing Cleveland Center
10:05PM 41.8681 -83.0817 109° East 185 213 5,000  Level Cleveland Center
10:06PM 41.8486 -83.0167 112° Southeast 189 217 5,000  Level Cleveland Center
10:07PM 41.8333 -82.9519 108° East 188 216 5,000 60 Level Cleveland Center
10:07PM 41.8233 -82.9350 128° Southeast 188 216 5,100 120 Climbing Cleveland Center
10:08PM 41.8081 -82.8647 106° East 186 214 5,200  Climbing Cleveland Center
10:09PM 41.7906 -82.8028 111° Southeast 183 211 5,100  Descending Cleveland Center
10:10PM 41.7731 -82.7353 109° East 184 212 5,200  Climbing Cleveland Center
10:11PM 41.7617 -82.6739 104° East 184 212 5,200 -60 Level Cleveland Center
10:12PM 41.7503 -82.6067 103° East 187 215 5,100  Descending Cleveland Center
10:13PM 41.7369 -82.5394 105° East 185 213 5,200  Climbing Cleveland Center
10:14PM 41.7214 -82.4694 107° East 187 215 5,200 -60 Level Cleveland Center
10:15PM 41.7081 -82.3967 104° East 193 222 5,100  Descending Cleveland Center
10:16PM 41.6944 -82.3267 105° East 193 222 5,200  Climbing Cleveland Center
10:17PM 41.6828 -82.2708 106° East 192 221 5,200 -360 Level Cleveland Center
10:18PM 41.6694 -82.1925 103° East 201 231 4,600 -480 Descending Cleveland Center
10:19PM 41.6558 -82.1061 102° East 211 243 4,200 -480 Descending Cleveland Center
10:20PM 41.6525 -82.0394 94° East 205 236 3,700 -540 Descending Cleveland Center
10:21PM 41.6533 -81.9728 89° East 206 237 3,300 -420 Descending Cleveland Center
10:22PM 41.6458 -81.9031 98° East 202 232 3,000 -360 Descending Cleveland Center
10:23PM 41.6175 -81.8414 122° Southeast 191 220 2,700 -360 Descending Cleveland Center
10:24PM 41.5911 -81.7742 118° Southeast 186 214 2,300 -360 Descending Cleveland Center
10:25PM 41.5667 -81.7239 123° Southeast 179 206 2,000 -480 Descending Cleveland Center
10:26PM 41.5378 -81.6706 126° Southeast 141 162 1,400 -540 Descending Cleveland Center
10:28PM 41.5167 -81.6667 108° East  Level FlightAware Approximate
10:35PM 41.5175 -81.6833 108° East  Level Estimated